El.venizelos — SWWZ — position and weather

sailwx.info

Track history (hours):
 
Tides and Currents Weather Stations Pressure Air Temp Water Temp Dewpoint Dewpoint Depression Visibility Wind Speed Wind Dir Waves Ship Positions

El.venizelos

Last reported at 2018-Jul-16 04:29 UTC. Time now 2018-Jul-16 04:47 UTC.
Position N 37°57' E 023°38'.

Length 175.5 m; beam 28.5 m; draft 6.7 m.

Type: Passenger vessel. MMSI: 237628000.

Date/timePositionNaut miles runAvg speedWind from/ knotsBaromVisibWave heightAir tempDewpointWater temp
2018-Jul-16 04:29N 37°57' E 023°38'0 0.0
2018-Jul-16 03:56N 37°57' E 023°38'0 0.4
2018-Jul-16 03:30N 37°57' E 023°38'5 9.3
2018-Jul-16 03:01N 37°52' E 023°39'1019.6
2018-Jul-16 02:30N 37°43' E 023°43'1019.5
2018-Jul-16 02:01N 37°34' E 023°47'1019.4
2018-Jul-16 01:30N 37°24' E 023°48'1019.2
2018-Jul-16 01:01N 37°15' E 023°50'1019.5
2018-Jul-16 00:30N 37°05' E 023°53'2319.2
2018-Jul-15 23:19N 36°42' E 023°57'2419.4
2018-Jul-15 22:05N 36°19' E 024°02'919.8
2018-Jul-15 21:38N 36°10' E 024°05'720.0
2018-Jul-15 21:17N 36°03' E 024°06'519.8
2018-Jul-15 21:01N 35°58' E 024°08'1019.5
2018-Jul-15 20:30N 35°49' E 024°11'1219.5
2018-Jul-15 19:55N 35°37' E 024°12'718.0
2018-Jul-15 19:31N 35°30' E 024°12'1 0.2
2018-Jul-15 14:52N 35°29' E 024°11'616.9
2018-Jul-15 14:30N 35°35' E 024°13'12619.9
2018-Jul-15 08:11N 37°39' E 023°43'320.1
2018-Jul-15 08:00N 37°42' E 023°41'1019.4
2018-Jul-15 07:30N 37°51' E 023°37'611.8
2018-Jul-15 07:00N 37°57' E 023°38'0 0.0
2018-Jul-15 06:30N 37°57' E 023°38'0 0.0
2018-Jul-15 06:00N 37°57' E 023°38'0 0.0
2018-Jul-15 05:30N 37°57' E 023°38'0 0.0
2018-Jul-15 05:00N 37°57' E 023°38'0 0.0
2018-Jul-15 04:30N 37°57' E 023°38'0 0.0
2018-Jul-15 04:00N 37°57' E 023°38'0 0.6
2018-Jul-15 03:30N 37°57' E 023°38'511.0
2018-Jul-15 03:00N 37°51' E 023°39'1019.4
2018-Jul-15 02:30N 37°43' E 023°45'1019.2
2018-Jul-15 02:00N 37°33' E 023°47'1019.1
2018-Jul-15 01:30N 37°24' E 023°48'1019.0
2018-Jul-15 00:59N 37°14' E 023°50'919.1
2018-Jul-15 00:30N 37°05' E 023°52'919.0
2018-Jul-15 00:00N 36°56' E 023°55'918.9
2018-Jul-14 23:30N 36°46' E 023°57'7219.5
2018-Jul-14 19:47N 35°35' E 024°13'517.3
2018-Jul-14 19:30N 35°30' E 024°12'1 0.2
2018-Jul-14 14:56N 35°29' E 024°11'13219.5
2018-Jul-14 08:12N 37°39' E 023°43'419.7
2018-Jul-14 08:01N 37°42' E 023°41'1019.2
2018-Jul-14 07:31N 37°51' E 023°37'611.3
2018-Jul-14 07:00N 37°57' E 023°38'0 0.0
2018-Jul-14 06:30N 37°57' E 023°38'0 0.0
2018-Jul-14 06:00N 37°57' E 023°38'0 0.0
2018-Jul-14 05:30N 37°57' E 023°38'0 0.0
2018-Jul-14 05:00N 37°57' E 023°38'0 0.0
2018-Jul-14 04:30N 37°57' E 023°38'0 0.0
2018-Jul-14 04:00N 37°57' E 023°38'0 0.7
2018-Jul-14 03:31N 37°57' E 023°38'611.1
2018-Jul-14 03:01N 37°51' E 023°39'1019.3
2018-Jul-14 02:31N 37°42' E 023°45'1019.2
2018-Jul-14 02:01N 37°33' E 023°47'1019.3
2018-Jul-14 01:30N 37°23' E 023°49'1619.1
2018-Jul-14 00:41N 37°08' E 023°52'418.9
2018-Jul-14 00:29N 37°04' E 023°53'9019.3
2018-Jul-13 19:48N 35°35' E 024°13'517.6
2018-Jul-13 19:31N 35°30' E 024°12'3 0.6
2018-Jul-13 14:45N 35°33' E 024°13'12719.8
2018-Jul-13 08:19N 37°37' E 023°43'619.7
2018-Jul-13 08:00N 37°43' E 023°40'918.8
2018-Jul-13 07:30N 37°52' E 023°37'5 9.8
2018-Jul-13 07:00N 37°57' E 023°38'0 0.0
2018-Jul-13 06:30N 37°57' E 023°38'0 0.0
2018-Jul-13 06:00N 37°57' E 023°38'0 0.0
2018-Jul-13 05:30N 37°57' E 023°38'0 0.0
2018-Jul-13 05:00N 37°57' E 023°38'0 0.0
2018-Jul-13 04:30N 37°57' E 023°38'0 0.0
2018-Jul-13 04:00N 37°57' E 023°38'2 3.4
2018-Jul-13 03:31N 37°56' E 023°37'917.5
2018-Jul-13 03:00N 37°48' E 023°41'919.0
2018-Jul-13 02:31N 37°39' E 023°46'918.9
2018-Jul-13 02:01N 37°30' E 023°48'918.9
2018-Jul-13 01:31N 37°20' E 023°50'918.8
2018-Jul-13 01:01N 37°11' E 023°52'1118.7
2018-Jul-13 00:25N 37°00' E 023°54'8719.1
2018-Jul-12 19:53N 35°35' E 024°13'6 1.3
2018-Jul-12 15:06N 35°29' E 024°11'315.1
2018-Jul-12 14:55N 35°32' E 024°13'12419.6
2018-Jul-12 08:36N 37°33' E 023°44'219.6
2018-Jul-12 08:30N 37°35' E 023°44'1019.6
2018-Jul-12 08:00N 37°44' E 023°40'918.6
2018-Jul-12 07:30N 37°53' E 023°37'4 7.8
2018-Jul-12 07:01N 37°57' E 023°38'0 0.0
2018-Jul-12 06:31N 37°57' E 023°38'0 0.0
2018-Jul-12 06:01N 37°57' E 023°38'0 0.0
2018-Jul-12 05:31N 37°57' E 023°38'0 0.0
2018-Jul-12 05:00N 37°57' E 023°38'0 0.0
2018-Jul-12 04:31N 37°57' E 023°38'0 0.2
2018-Jul-12 04:01N 37°57' E 023°38'3 5.6
2018-Jul-12 03:30N 37°54' E 023°37'918.7
2018-Jul-12 03:00N 37°46' E 023°43'918.6
2018-Jul-12 02:30N 37°37' E 023°47'918.7
2018-Jul-12 02:00N 37°28' E 023°49'2318.7
2018-Jul-12 00:46N 37°05' E 023°53'518.6
2018-Jul-12 00:30N 36°60' E 023°54'8519.0
2018-Jul-11 20:00N 35°36' E 024°13'6 1.3
2018-Jul-11 15:02N 35°30' E 024°12'014.8
2018-Jul-11 15:01N 35°30' E 024°12'12519.3
2018-Jul-11 08:31N 37°33' E 023°44'519.4
2018-Jul-11 08:14N 37°39' E 023°43'419.1
2018-Jul-11 08:00N 37°43' E 023°40'1118.3
2018-Jul-11 07:25N 37°53' E 023°37'410.1
2018-Jul-11 07:01N 37°57' E 023°38'0 0.0
2018-Jul-11 06:31N 37°57' E 023°38'0 0.0
2018-Jul-11 06:01N 37°57' E 023°38'0 0.0
2018-Jul-11 05:31N 37°57' E 023°38'0 0.0
2018-Jul-11 05:00N 37°57' E 023°38'0 0.0
2018-Jul-11 04:30N 37°57' E 023°38'0 0.0
2018-Jul-11 04:00N 37°57' E 023°38'1 2.9
2018-Jul-11 03:31N 37°56' E 023°37'714.9
2018-Jul-11 03:00N 37°49' E 023°41'918.8
2018-Jul-11 02:30N 37°41' E 023°46'1018.9
2018-Jul-11 01:59N 37°31' E 023°48'2319.0
2018-Jul-11 00:46N 37°08' E 023°52'4719.1
2018-Jul-10 22:17N 36°22' E 024°02'519.3
2018-Jul-10 22:00N 36°16' E 024°04'4519.1
2018-Jul-10 19:40N 35°32' E 024°13'316.9
2018-Jul-10 19:30N 35°30' E 024°12'0 0.0
2018-Jul-10 03:40N 35°30' E 024°11'314.4
2018-Jul-10 03:26N 35°33' E 024°13'12318.8
2018-Jul-09 20:55N 37°33' E 023°44'818.7
2018-Jul-09 20:30N 37°41' E 023°41'918.4
2018-Jul-09 20:00N 37°49' E 023°37'715.0
2018-Jul-09 19:31N 37°56' E 023°37'1 1.6
2018-Jul-09 19:01N 37°57' E 023°38'0 0.0
2018-Jul-09 18:30N 37°57' E 023°38'0 0.0
2018-Jul-09 18:01N 37°57' E 023°38'0 0.0
2018-Jul-09 17:31N 37°57' E 023°38'0 0.0
2018-Jul-09 17:01N 37°57' E 023°38'0 0.0
2018-Jul-09 16:30N 37°57' E 023°38'0 0.0
2018-Jul-09 16:01N 37°57' E 023°38'0 0.0
2018-Jul-09 15:31N 37°57' E 023°38'0 0.0
2018-Jul-09 15:01N 37°57' E 023°38'0 0.0
2018-Jul-09 14:30N 37°57' E 023°38'0 0.0
2018-Jul-09 14:00N 37°57' E 023°38'0 0.0
2018-Jul-09 13:30N 37°57' E 023°38'0 0.0
2018-Jul-09 13:01N 37°57' E 023°38'0 0.0
2018-Jul-09 12:31N 37°57' E 023°38'0 0.0
2018-Jul-09 12:01N 37°57' E 023°38'0 0.0
2018-Jul-09 11:31N 37°57' E 023°38'0 0.0
2018-Jul-09 11:00N 37°57' E 023°38'0 0.0
2018-Jul-09 10:30N 37°57' E 023°38'0 0.0
2018-Jul-09 10:00N 37°57' E 023°38'0 0.0
2018-Jul-09 09:31N 37°57' E 023°38'0 0.0
2018-Jul-09 09:01N 37°57' E 023°38'0 0.0
2018-Jul-09 08:30N 37°57' E 023°38'0 0.0
2018-Jul-09 08:01N 37°57' E 023°38'0 0.0
2018-Jul-09 07:30N 37°57' E 023°38'0 0.0
2018-Jul-09 07:01N 37°57' E 023°38'0 0.0
2018-Jul-09 06:31N 37°57' E 023°38'0 0.0
2018-Jul-09 06:00N 37°57' E 023°38'0 0.0
2018-Jul-09 05:30N 37°57' E 023°38'0 0.0
2018-Jul-09 05:01N 37°57' E 023°38'0 0.0
2018-Jul-09 04:30N 37°57' E 023°38'0 0.0
2018-Jul-09 04:00N 37°57' E 023°38'0 0.0
2018-Jul-09 03:31N 37°57' E 023°38'3 6.3
2018-Jul-09 03:01N 37°54' E 023°38'1019.7
2018-Jul-09 02:31N 37°45' E 023°43'1019.5
2018-Jul-09 02:00N 37°36' E 023°47'2719.5
2018-Jul-09 00:38N 37°09' E 023°51'319.6
2018-Jul-09 00:29N 37°06' E 023°52'9619.6
2018-Jul-08 19:35N 35°32' E 024°13'218.4
2018-Jul-08 19:30N 35°30' E 024°12'12911.6
2018-Jul-08 08:22N 37°37' E 023°43'719.5
2018-Jul-08 08:00N 37°43' E 023°40'918.9
2018-Jul-08 07:30N 37°52' E 023°37'5 9.8
2018-Jul-08 07:00N 37°57' E 023°38'0 0.0
2018-Jul-08 06:30N 37°57' E 023°38'0 0.0
2018-Jul-08 06:00N 37°57' E 023°38'0 0.0
2018-Jul-08 05:30N 37°57' E 023°38'0 0.0
2018-Jul-08 05:00N 37°57' E 023°38'0 0.0
2018-Jul-08 04:30N 37°57' E 023°38'0 0.0
2018-Jul-08 04:00N 37°57' E 023°38'0 0.3
2018-Jul-08 03:30N 37°57' E 023°38'3 6.1
2018-Jul-08 03:01N 37°54' E 023°38'1019.7
2018-Jul-08 02:31N 37°45' E 023°43'1019.5
2018-Jul-08 02:00N 37°36' E 023°48'12519.6
2018-Jul-07 19:37N 35°32' E 024°13'218.1
2018-Jul-07 19:29N 35°30' E 024°12'41 6.1
2018-Jul-07 12:48N 36°11' E 024°05'619.5
2018-Jul-07 12:30N 36°17' E 024°04'8219.9
2018-Jul-07 08:24N 37°36' E 023°43'719.3
2018-Jul-07 08:01N 37°44' E 023°40'918.3
2018-Jul-07 07:31N 37°52' E 023°37'5 9.3
2018-Jul-07 07:00N 37°57' E 023°38'0 0.0
2018-Jul-07 06:29N 37°57' E 023°38'0 0.0
2018-Jul-07 06:00N 37°57' E 023°38'0 0.0
2018-Jul-07 05:30N 37°57' E 023°38'0 0.0
2018-Jul-07 05:00N 37°57' E 023°38'0 0.0
2018-Jul-07 04:28N 37°57' E 023°38'0 0.0
2018-Jul-07 03:58N 37°57' E 023°38'0 0.2
2018-Jul-07 03:30N 37°57' E 023°38'4 8.1
2018-Jul-07 03:01N 37°53' E 023°38'1019.4
2018-Jul-07 02:30N 37°44' E 023°44'919.1
2018-Jul-07 02:01N 37°35' E 023°47'1019.1
2018-Jul-07 01:30N 37°25' E 023°49'1019.2
2018-Jul-07 01:00N 37°16' E 023°50'1019.5
2018-Jul-07 00:31N 37°06' E 023°52'1019.5
2018-Jul-07 00:00N 36°57' E 023°55'1019.5
2018-Jul-06 23:31N 36°47' E 023°57'1019.8
2018-Jul-06 23:00N 36°37' E 023°59'1419.7
2018-Jul-06 22:18N 36°24' E 024°02'619.7
2018-Jul-06 22:01N 36°18' E 024°03'1019.7
2018-Jul-06 21:30N 36°08' E 024°06'2519.4
2018-Jul-06 20:12N 35°43' E 024°11'419.4
2018-Jul-06 20:00N 35°40' E 024°12'918.3
2018-Jul-06 19:30N 35°30' E 024°12'2 0.4
2018-Jul-06 15:00N 35°32' E 024°13'2319.4
2018-Jul-06 13:47N 35°55' E 024°09'619.7
2018-Jul-06 13:30N 36°01' E 024°07'1019.6
2018-Jul-06 13:00N 36°10' E 024°05'1019.4
2018-Jul-06 12:29N 36°20' E 024°03'7919.6
2018-Jul-06 08:27N 37°38' E 023°43'919.2
2018-Jul-06 08:00N 37°46' E 023°39'917.3
2018-Jul-06 07:30N 37°54' E 023°37'3 3.6
2018-Jul-06 06:41N 37°57' E 023°38'0 0.0
2018-Jul-06 05:48N 37°57' E 023°38'0 0.0
2018-Jul-06 05:30N 37°57' E 023°38'0 0.0
2018-Jul-06 05:00N 37°57' E 023°38'0 0.0
2018-Jul-06 04:31N 37°57' E 023°38'  
Track history (hours):
 
Tides and Currents Weather Stations Pressure Air Temp Water Temp Dewpoint Dewpoint Depression Visibility Wind Speed Wind Dir Waves Ship Positions

El.venizelos

Last reported at 2018-Jul-16 04:29 UTC. Time now 2018-Jul-16 04:47 UTC.
Position N 37°57' E 023°38'.

Length 175.5 m; beam 28.5 m; draft 6.7 m.

Type: Passenger vessel. MMSI: 237628000.

Date/timePositionNaut miles runAvg speedWind from/ knotsBaromVisibWave heightAir tempDewpointWater temp
2018-Jul-16 04:29N 37°57' E 023°38'0 0.0
2018-Jul-16 03:56N 37°57' E 023°38'0 0.4
2018-Jul-16 03:30N 37°57' E 023°38'5 9.3
2018-Jul-16 03:01N 37°52' E 023°39'1019.6
2018-Jul-16 02:30N 37°43' E 023°43'1019.5
2018-Jul-16 02:01N 37°34' E 023°47'1019.4
2018-Jul-16 01:30N 37°24' E 023°48'1019.2
2018-Jul-16 01:01N 37°15' E 023°50'1019.5
2018-Jul-16 00:30N 37°05' E 023°53'2319.2
2018-Jul-15 23:19N 36°42' E 023°57'2419.4
2018-Jul-15 22:05N 36°19' E 024°02'919.8
2018-Jul-15 21:38N 36°10' E 024°05'720.0
2018-Jul-15 21:17N 36°03' E 024°06'519.8
2018-Jul-15 21:01N 35°58' E 024°08'1019.5
2018-Jul-15 20:30N 35°49' E 024°11'1219.5
2018-Jul-15 19:55N 35°37' E 024°12'718.0
2018-Jul-15 19:31N 35°30' E 024°12'1 0.2
2018-Jul-15 14:52N 35°29' E 024°11'616.9
2018-Jul-15 14:30N 35°35' E 024°13'12619.9
2018-Jul-15 08:11N 37°39' E 023°43'320.1
2018-Jul-15 08:00N 37°42' E 023°41'1019.4
2018-Jul-15 07:30N 37°51' E 023°37'611.8
2018-Jul-15 07:00N 37°57' E 023°38'0 0.0
2018-Jul-15 06:30N 37°57' E 023°38'0 0.0
2018-Jul-15 06:00N 37°57' E 023°38'0 0.0
2018-Jul-15 05:30N 37°57' E 023°38'0 0.0
2018-Jul-15 05:00N 37°57' E 023°38'0 0.0
2018-Jul-15 04:30N 37°57' E 023°38'0 0.0
2018-Jul-15 04:00N 37°57' E 023°38'0 0.6
2018-Jul-15 03:30N 37°57' E 023°38'511.0
2018-Jul-15 03:00N 37°51' E 023°39'1019.4
2018-Jul-15 02:30N 37°43' E 023°45'1019.2
2018-Jul-15 02:00N 37°33' E 023°47'1019.1
2018-Jul-15 01:30N 37°24' E 023°48'1019.0
2018-Jul-15 00:59N 37°14' E 023°50'919.1
2018-Jul-15 00:30N 37°05' E 023°52'919.0
2018-Jul-15 00:00N 36°56' E 023°55'918.9
2018-Jul-14 23:30N 36°46' E 023°57'7219.5
2018-Jul-14 19:47N 35°35' E 024°13'517.3
2018-Jul-14 19:30N 35°30' E 024°12'1 0.2
2018-Jul-14 14:56N 35°29' E 024°11'13219.5
2018-Jul-14 08:12N 37°39' E 023°43'419.7
2018-Jul-14 08:01N 37°42' E 023°41'1019.2
2018-Jul-14 07:31N 37°51' E 023°37'611.3
2018-Jul-14 07:00N 37°57' E 023°38'0 0.0
2018-Jul-14 06:30N 37°57' E 023°38'0 0.0
2018-Jul-14 06:00N 37°57' E 023°38'0 0.0
2018-Jul-14 05:30N 37°57' E 023°38'0 0.0
2018-Jul-14 05:00N 37°57' E 023°38'0 0.0
2018-Jul-14 04:30N 37°57' E 023°38'0 0.0
2018-Jul-14 04:00N 37°57' E 023°38'0 0.7
2018-Jul-14 03:31N 37°57' E 023°38'611.1
2018-Jul-14 03:01N 37°51' E 023°39'1019.3
2018-Jul-14 02:31N 37°42' E 023°45'1019.2
2018-Jul-14 02:01N 37°33' E 023°47'1019.3
2018-Jul-14 01:30N 37°23' E 023°49'1619.1
2018-Jul-14 00:41N 37°08' E 023°52'418.9
2018-Jul-14 00:29N 37°04' E 023°53'9019.3
2018-Jul-13 19:48N 35°35' E 024°13'517.6
2018-Jul-13 19:31N 35°30' E 024°12'3 0.6
2018-Jul-13 14:45N 35°33' E 024°13'12719.8
2018-Jul-13 08:19N 37°37' E 023°43'619.7
2018-Jul-13 08:00N 37°43' E 023°40'918.8
2018-Jul-13 07:30N 37°52' E 023°37'5 9.8
2018-Jul-13 07:00N 37°57' E 023°38'0 0.0
2018-Jul-13 06:30N 37°57' E 023°38'0 0.0
2018-Jul-13 06:00N 37°57' E 023°38'0 0.0
2018-Jul-13 05:30N 37°57' E 023°38'0 0.0
2018-Jul-13 05:00N 37°57' E 023°38'0 0.0
2018-Jul-13 04:30N 37°57' E 023°38'0 0.0
2018-Jul-13 04:00N 37°57' E 023°38'2 3.4
2018-Jul-13 03:31N 37°56' E 023°37'917.5
2018-Jul-13 03:00N 37°48' E 023°41'919.0
2018-Jul-13 02:31N 37°39' E 023°46'918.9
2018-Jul-13 02:01N 37°30' E 023°48'918.9
2018-Jul-13 01:31N 37°20' E 023°50'918.8
2018-Jul-13 01:01N 37°11' E 023°52'1118.7
2018-Jul-13 00:25N 37°00' E 023°54'8719.1
2018-Jul-12 19:53N 35°35' E 024°13'6 1.3
2018-Jul-12 15:06N 35°29' E 024°11'315.1
2018-Jul-12 14:55N 35°32' E 024°13'12419.6
2018-Jul-12 08:36N 37°33' E 023°44'219.6
2018-Jul-12 08:30N 37°35' E 023°44'1019.6
2018-Jul-12 08:00N 37°44' E 023°40'918.6
2018-Jul-12 07:30N 37°53' E 023°37'4 7.8
2018-Jul-12 07:01N 37°57' E 023°38'0 0.0
2018-Jul-12 06:31N 37°57' E 023°38'0 0.0
2018-Jul-12 06:01N 37°57' E 023°38'0 0.0
2018-Jul-12 05:31N 37°57' E 023°38'0 0.0
2018-Jul-12 05:00N 37°57' E 023°38'0 0.0
2018-Jul-12 04:31N 37°57' E 023°38'0 0.2
2018-Jul-12 04:01N 37°57' E 023°38'3 5.6
2018-Jul-12 03:30N 37°54' E 023°37'918.7
2018-Jul-12 03:00N 37°46' E 023°43'918.6
2018-Jul-12 02:30N 37°37' E 023°47'918.7
2018-Jul-12 02:00N 37°28' E 023°49'2318.7
2018-Jul-12 00:46N 37°05' E 023°53'518.6
2018-Jul-12 00:30N 36°60' E 023°54'8519.0
2018-Jul-11 20:00N 35°36' E 024°13'6 1.3
2018-Jul-11 15:02N 35°30' E 024°12'014.8
2018-Jul-11 15:01N 35°30' E 024°12'12519.3
2018-Jul-11 08:31N 37°33' E 023°44'519.4
2018-Jul-11 08:14N 37°39' E 023°43'419.1
2018-Jul-11 08:00N 37°43' E 023°40'1118.3
2018-Jul-11 07:25N 37°53' E 023°37'410.1
2018-Jul-11 07:01N 37°57' E 023°38'0 0.0
2018-Jul-11 06:31N 37°57' E 023°38'0 0.0
2018-Jul-11 06:01N 37°57' E 023°38'0 0.0
2018-Jul-11 05:31N 37°57' E 023°38'0 0.0
2018-Jul-11 05:00N 37°57' E 023°38'0 0.0
2018-Jul-11 04:30N 37°57' E 023°38'0 0.0
2018-Jul-11 04:00N 37°57' E 023°38'1 2.9
2018-Jul-11 03:31N 37°56' E 023°37'714.9
2018-Jul-11 03:00N 37°49' E 023°41'918.8
2018-Jul-11 02:30N 37°41' E 023°46'1018.9
2018-Jul-11 01:59N 37°31' E 023°48'2319.0
2018-Jul-11 00:46N 37°08' E 023°52'4719.1
2018-Jul-10 22:17N 36°22' E 024°02'519.3
2018-Jul-10 22:00N 36°16' E 024°04'4519.1
2018-Jul-10 19:40N 35°32' E 024°13'316.9
2018-Jul-10 19:30N 35°30' E 024°12'0 0.0
2018-Jul-10 03:40N 35°30' E 024°11'314.4
2018-Jul-10 03:26N 35°33' E 024°13'12318.8
2018-Jul-09 20:55N 37°33' E 023°44'818.7
2018-Jul-09 20:30N 37°41' E 023°41'918.4
2018-Jul-09 20:00N 37°49' E 023°37'715.0
2018-Jul-09 19:31N 37°56' E 023°37'1 1.6
2018-Jul-09 19:01N 37°57' E 023°38'0 0.0
2018-Jul-09 18:30N 37°57' E 023°38'0 0.0
2018-Jul-09 18:01N 37°57' E 023°38'0 0.0
2018-Jul-09 17:31N 37°57' E 023°38'0 0.0
2018-Jul-09 17:01N 37°57' E 023°38'0 0.0
2018-Jul-09 16:30N 37°57' E 023°38'0 0.0
2018-Jul-09 16:01N 37°57' E 023°38'0 0.0
2018-Jul-09 15:31N 37°57' E 023°38'0 0.0
2018-Jul-09 15:01N 37°57' E 023°38'0 0.0
2018-Jul-09 14:30N 37°57' E 023°38'0 0.0
2018-Jul-09 14:00N 37°57' E 023°38'0 0.0
2018-Jul-09 13:30N 37°57' E 023°38'0 0.0
2018-Jul-09 13:01N 37°57' E 023°38'0 0.0
2018-Jul-09 12:31N 37°57' E 023°38'0 0.0
2018-Jul-09 12:01N 37°57' E 023°38'0 0.0
2018-Jul-09 11:31N 37°57' E 023°38'0 0.0
2018-Jul-09 11:00N 37°57' E 023°38'0 0.0
2018-Jul-09 10:30N 37°57' E 023°38'0 0.0
2018-Jul-09 10:00N 37°57' E 023°38'0 0.0
2018-Jul-09 09:31N 37°57' E 023°38'0 0.0
2018-Jul-09 09:01N 37°57' E 023°38'0 0.0
2018-Jul-09 08:30N 37°57' E 023°38'0 0.0
2018-Jul-09 08:01N 37°57' E 023°38'0 0.0
2018-Jul-09 07:30N 37°57' E 023°38'0 0.0
2018-Jul-09 07:01N 37°57' E 023°38'0 0.0
2018-Jul-09 06:31N 37°57' E 023°38'0 0.0
2018-Jul-09 06:00N 37°57' E 023°38'0 0.0
2018-Jul-09 05:30N 37°57' E 023°38'0 0.0
2018-Jul-09 05:01N 37°57' E 023°38'0 0.0
2018-Jul-09 04:30N 37°57' E 023°38'0 0.0
2018-Jul-09 04:00N 37°57' E 023°38'0 0.0
2018-Jul-09 03:31N 37°57' E 023°38'3 6.3
2018-Jul-09 03:01N 37°54' E 023°38'1019.7
2018-Jul-09 02:31N 37°45' E 023°43'1019.5
2018-Jul-09 02:00N 37°36' E 023°47'2719.5
2018-Jul-09 00:38N 37°09' E 023°51'319.6
2018-Jul-09 00:29N 37°06' E 023°52'9619.6
2018-Jul-08 19:35N 35°32' E 024°13'218.4
2018-Jul-08 19:30N 35°30' E 024°12'12911.6
2018-Jul-08 08:22N 37°37' E 023°43'719.5
2018-Jul-08 08:00N 37°43' E 023°40'918.9
2018-Jul-08 07:30N 37°52' E 023°37'5 9.8
2018-Jul-08 07:00N 37°57' E 023°38'0 0.0
2018-Jul-08 06:30N 37°57' E 023°38'0 0.0
2018-Jul-08 06:00N 37°57' E 023°38'0 0.0
2018-Jul-08 05:30N 37°57' E 023°38'0 0.0
2018-Jul-08 05:00N 37°57' E 023°38'0 0.0
2018-Jul-08 04:30N 37°57' E 023°38'0 0.0
2018-Jul-08 04:00N 37°57' E 023°38'0 0.3
2018-Jul-08 03:30N 37°57' E 023°38'3 6.1
2018-Jul-08 03:01N 37°54' E 023°38'1019.7
2018-Jul-08 02:31N 37°45' E 023°43'1019.5
2018-Jul-08 02:00N 37°36' E 023°48'12519.6
2018-Jul-07 19:37N 35°32' E 024°13'218.1
2018-Jul-07 19:29N 35°30' E 024°12'41 6.1
2018-Jul-07 12:48N 36°11' E 024°05'619.5
2018-Jul-07 12:30N 36°17' E 024°04'8219.9
2018-Jul-07 08:24N 37°36' E 023°43'719.3
2018-Jul-07 08:01N 37°44' E 023°40'918.3
2018-Jul-07 07:31N 37°52' E 023°37'5 9.3
2018-Jul-07 07:00N 37°57' E 023°38'0 0.0
2018-Jul-07 06:29N 37°57' E 023°38'0 0.0
2018-Jul-07 06:00N 37°57' E 023°38'0 0.0
2018-Jul-07 05:30N 37°57' E 023°38'0 0.0
2018-Jul-07 05:00N 37°57' E 023°38'0 0.0
2018-Jul-07 04:28N 37°57' E 023°38'0 0.0
2018-Jul-07 03:58N 37°57' E 023°38'0 0.2
2018-Jul-07 03:30N 37°57' E 023°38'4 8.1
2018-Jul-07 03:01N 37°53' E 023°38'1019.4
2018-Jul-07 02:30N 37°44' E 023°44'919.1
2018-Jul-07 02:01N 37°35' E 023°47'1019.1
2018-Jul-07 01:30N 37°25' E 023°49'1019.2
2018-Jul-07 01:00N 37°16' E 023°50'1019.5
2018-Jul-07 00:31N 37°06' E 023°52'1019.5
2018-Jul-07 00:00N 36°57' E 023°55'1019.5
2018-Jul-06 23:31N 36°47' E 023°57'1019.8
2018-Jul-06 23:00N 36°37' E 023°59'1419.7
2018-Jul-06 22:18N 36°24' E 024°02'619.7
2018-Jul-06 22:01N 36°18' E 024°03'1019.7
2018-Jul-06 21:30N 36°08' E 024°06'2519.4
2018-Jul-06 20:12N 35°43' E 024°11'419.4
2018-Jul-06 20:00N 35°40' E 024°12'918.3
2018-Jul-06 19:30N 35°30' E 024°12'2 0.4
2018-Jul-06 15:00N 35°32' E 024°13'2319.4
2018-Jul-06 13:47N 35°55' E 024°09'619.7
2018-Jul-06 13:30N 36°01' E 024°07'1019.6
2018-Jul-06 13:00N 36°10' E 024°05'1019.4
2018-Jul-06 12:29N 36°20' E 024°03'7919.6
2018-Jul-06 08:27N 37°38' E 023°43'919.2
2018-Jul-06 08:00N 37°46' E 023°39'917.3
2018-Jul-06 07:30N 37°54' E 023°37'3 3.6
2018-Jul-06 06:41N 37°57' E 023°38'0 0.0
2018-Jul-06 05:48N 37°57' E 023°38'0 0.0
2018-Jul-06 05:30N 37°57' E 023°38'0 0.0
2018-Jul-06 05:00N 37°57' E 023°38'0 0.0
2018-Jul-06 04:31N 37°57' E 023°38'  

Dump ship's entire track history